LFOJ 301030Z AUTO 07014KT CAVOK 22/05 Q1019 NOSIG

ElémentsDécodage
LFOJ Station météo située sur l'aérodrome de ORLEANS Bricy
301030Z émis le 30 du mois à 10h30 UTC
AUTO Bulletin édité par un automate
07014KT vent du 070°, 14 noeuds
CAVOK Ceiling And Visibility OK
- Visibilité de 10 Km ou plus
- Pas de nuage au-dessous de 1500m ou au-dessous de l'altitude minimale du secteur la plus élevée (si>1500m) et absence de CB
- pas de temps présent significatif
22/05 température 22°C, point de rosée 05°C
 soit une humidité relative de 33%
Q1019 la pression au niveau de la mer (QNH) est de 1019 hPa
NOSIG Pas de changement significatif prévu au cours des deux heures suivant l'heure de l'observation